Página principal
METAR-TAF:

METAR-TAF

Aeroportos :

Florianópolis, Santa Catarina, Brasil

Aeroporto Internacional de Florianópolis

latitude: 27-40S, longitude: 048-33W, altura: 5 m

Observação actual do tempo

O boletim foi feito há 36 minutos, às 17:00 UTC
Vento 10 kt de norte
Temperatura 26°C
Humidade 51%
Pressão 1019 hPa
Visibilidade 10 km ou mais
sem nuvens abaixo de 1500 metros e sem cumulonimbus

METAR: SBFL 281700Z 36010KT CAVOK 26/15 Q1019

Hora: 14:36 (17:36 UTC)

Previsão

O boletim foi feito há 2 horas e 6 minutos, às 15:30 UTC
Previsão válida de 28 às 18 UTC a 29 às 18 UTC
Vento 4 kt de norte
Visibilidade 10 km ou mais
sem nuvens abaixo de 1500 metros e sem cumulonimbus
Probabilidade 30% :
Temporariamente
de 28 às 18 UTC a 28 às 21 UTC
Vento 8 kt de norte
Tornando-se
de 29 às 15 UTC a 29 às 18 UTC
Vento 6 kt de norte

TAF: SBFL 281530Z 2818/2918 35004KT CAVOK TN18/2910Z TX26/2918Z PROB30 TEMPO 2818/2821 36008KT BECMG 2915/2918 01006KT RMK PDN

Observações e previsões do tempo de mais de 4000 aeroportos (mensagens METAR e TAF).

As estações disponíveis são os pontos amarelos e vermelhos sobre o mapa.

Mova o rato sobre o mapa para ver o nome da estação.

Depois clique no ponto para visualizar as observações e previsões meteorológicas.

Para alterar o mapa : clique nos botões verdes com uma cruz preta para aumentar o zoom; no botão verde com uma pitada de zoom; ou nas setas verdes para mapas adjacentes.


METAR-TAF: